createdAt,value
2018-02-24T00:00:06.920Z,77.89
2018-02-24T00:01:21.193Z,77.89
2018-02-24T00:02:35.511Z,78.17
2018-02-24T00:03:49.805Z,78.55
2018-02-24T00:05:03.846Z,78.45
2018-02-24T00:06:18.195Z,78.45
2018-02-24T00:07:31.963Z,78.27
2018-02-24T00:08:45.787Z,77.7
2018-02-24T00:09:59.824Z,77.7
2018-02-24T00:11:13.834Z,77.42
2018-02-24T00:12:28.343Z,77.32
2018-02-24T00:13:41.882Z,77.23
2018-02-24T00:14:56.395Z,77.13
2018-02-24T00:16:10.674Z,77.61
2018-02-24T00:17:24.988Z,77.7
2018-02-24T00:18:38.521Z,77.89
2018-02-24T00:19:52.777Z,78.45
2018-02-24T00:21:07.035Z,78.55
2018-02-24T00:22:21.082Z,78.55
2018-02-24T00:23:34.820Z,78.45
2018-02-24T00:24:49.303Z,78.55
2018-02-24T00:26:03.562Z,78.55
2018-02-24T00:27:18.094Z,78.45
2018-02-24T00:28:32.356Z,78.17
2018-02-24T00:29:46.592Z,78.36
2018-02-24T00:31:00.942Z,78.45
2018-02-24T00:32:15.163Z,78.74
2018-02-24T00:33:29.190Z,79.02
2018-02-24T00:34:42.988Z,78.45
2018-02-24T00:35:57.261Z,79.02
2018-02-24T00:37:11.032Z,79.11
2018-02-24T00:38:25.298Z,79.4
2018-02-24T00:39:38.813Z,79.78
2018-02-24T00:40:52.811Z,79.78
2018-02-24T00:42:07.076Z,79.68
2018-02-24T00:43:20.850Z,79.68
2018-02-24T00:44:34.612Z,79.3
2018-02-24T00:45:48.860Z,79.4
2018-02-24T00:47:03.388Z,79.78
2018-02-24T00:48:17.631Z,79.68
2018-02-24T00:49:31.391Z,80.72
2018-02-24T00:50:45.697Z,79.78
2018-02-24T00:52:00.440Z,80.44
2018-02-24T00:53:14.436Z,80.44
2018-02-24T00:54:28.457Z,80.44
2018-02-24T00:55:42.689Z,80.53
2018-02-24T00:56:56.725Z,80.25
2018-02-24T00:58:10.730Z,79.97
2018-02-24T00:59:24.997Z,79.78
2018-02-24T01:00:38.986Z,79.78
2018-02-24T01:01:53.006Z,79.87
2018-02-24T01:03:07.263Z,79.78
2018-02-24T01:04:21.638Z,79.49
2018-02-24T01:05:35.947Z,80.15
2018-02-24T01:06:49.430Z,79.4
2018-02-24T01:08:03.913Z,79.11
2018-02-24T01:09:17.940Z,78.92
2018-02-24T01:10:46.350Z,78.45
2018-02-24T01:12:00.812Z,78.36
2018-02-24T01:13:15.023Z,78.55
2018-02-24T01:14:28.802Z,78.36
2018-02-24T01:15:43.069Z,78.36
2018-02-24T01:16:56.837Z,77.98
2018-02-24T01:18:10.902Z,77.98
2018-02-24T01:19:25.178Z,77.98
2018-02-24T01:20:39.410Z,78.36
2018-02-24T01:21:53.917Z,78.27
2018-02-24T01:23:08.172Z,78.27
2018-02-24T01:24:22.413Z,77.89
2018-02-24T01:25:36.440Z,77.89
2018-02-24T01:26:50.936Z,78.17
2018-02-24T01:28:04.917Z,78.27
2018-02-24T01:29:19.412Z,77.42
2018-02-24T01:30:33.422Z,77.8
2018-02-24T01:31:47.887Z,77.8
2018-02-24T01:33:01.883Z,78.36
2018-02-24T01:34:16.440Z,78.55
2018-02-24T01:35:31.172Z,78.92
2018-02-24T01:36:45.982Z,78.74
2018-02-24T01:38:00.651Z,79.4
2018-02-24T01:39:14.752Z,79.59
2018-02-24T01:40:29.243Z,79.78
2018-02-24T01:41:43.733Z,79.78
2018-02-24T01:42:57.840Z,80.06
2018-02-24T01:44:11.573Z,80.06
2018-02-24T01:45:25.796Z,80.44
2018-02-24T01:46:40.501Z,80.34
2018-02-24T01:47:54.749Z,80.53
2018-02-24T01:49:08.477Z,80.53
2018-02-24T01:50:22.942Z,80.91
2018-02-24T01:51:36.692Z,81.1
2018-02-24T01:52:50.656Z,80.82
2018-02-24T01:54:04.141Z,81.1
2018-02-24T01:55:17.894Z,80.72
2018-02-24T01:56:32.408Z,80.63
2018-02-24T01:57:46.410Z,80.44
2018-02-24T01:59:00.891Z,80.91
2018-02-24T02:00:29.830Z,80.72
2018-02-24T02:01:43.829Z,80.82
2018-02-24T02:02:57.680Z,80.53
2018-02-24T02:04:12.137Z,80.44
2018-02-24T02:05:26.160Z,80.72
2018-02-24T02:06:40.392Z,80.63
2018-02-24T02:07:55.119Z,80.91
2018-02-24T02:09:09.226Z,81.01
2018-02-24T02:10:23.943Z,80.63
2018-02-24T02:11:38.417Z,81.15
2018-02-24T02:12:52.399Z,81.34
2018-02-24T02:14:06.857Z,81.72
2018-02-24T02:15:21.082Z,81.53
2018-02-24T02:16:34.807Z,81.62
2018-02-24T02:17:49.047Z,81.62
2018-02-24T02:19:03.018Z,81.81
2018-02-24T02:20:17.008Z,81.81
2018-02-24T02:21:30.516Z,81.43
2018-02-24T02:22:44.509Z,81.62
2018-02-24T02:23:58.758Z,81.24
2018-02-24T02:25:13.213Z,81.81
2018-02-24T02:26:26.715Z,82
2018-02-24T02:27:41.193Z,82
2018-02-24T02:28:54.917Z,82.19
2018-02-24T02:30:08.667Z,82.1
2018-02-24T02:31:23.408Z,82
2018-02-24T02:32:37.403Z,82.38
2018-02-24T02:33:51.885Z,82.47
2018-02-24T02:35:05.680Z,82.38
2018-02-24T02:36:19.421Z,82.85
2018-02-24T02:37:33.707Z,83.04
2018-02-24T02:38:48.173Z,82.85
2018-02-24T02:40:02.672Z,82.95
2018-02-24T02:41:16.939Z,83.51
2018-02-24T02:42:31.044Z,83.04
2018-02-24T02:43:45.043Z,82.76
2018-02-24T02:44:59.026Z,82.66
2018-02-24T02:46:13.523Z,82.76
2018-02-24T02:47:27.746Z,83.04
2018-02-24T02:48:42.301Z,83.42
2018-02-24T02:49:56.839Z,82.95
2018-02-24T02:51:11.563Z,83.23
2018-02-24T02:52:26.063Z,83.23
2018-02-24T02:53:40.069Z,83.14
2018-02-24T02:54:54.316Z,83.04
2018-02-24T02:56:08.350Z,82.85
2018-02-24T02:57:22.575Z,82.85
2018-02-24T02:58:37.076Z,83.04
2018-02-24T02:59:51.316Z,82.19
2018-02-24T03:01:04.617Z,82.28
2018-02-24T03:02:18.854Z,82.66
2018-02-24T03:03:32.828Z,82.85
2018-02-24T03:04:47.339Z,82.66
2018-02-24T03:06:01.314Z,82.76
2018-02-24T03:07:14.829Z,82.19
2018-02-24T03:08:29.080Z,82
2018-02-24T03:09:43.826Z,82
2018-02-24T03:10:58.066Z,82.38
2018-02-24T03:12:12.531Z,82.19
2018-02-24T03:13:26.750Z,82.19
2018-02-24T03:14:40.746Z,82.47
2018-02-24T03:15:55.321Z,82.19
2018-02-24T03:17:08.610Z,82.19
2018-02-24T03:18:23.167Z,81.62
2018-02-24T03:19:37.385Z,81.72
2018-02-24T03:20:51.642Z,81.53
2018-02-24T03:22:05.113Z,81.34
2018-02-24T03:23:19.154Z,81.53
2018-02-24T03:24:32.915Z,81.53
2018-02-24T03:25:46.637Z,81.53
2018-02-24T03:27:00.623Z,81.34
2018-02-24T03:28:15.340Z,81.53
2018-02-24T03:29:29.320Z,81.34
2018-02-24T03:30:43.785Z,81.43
2018-02-24T03:31:58.274Z,81.53
2018-02-24T03:33:12.257Z,81.53
2018-02-24T03:34:26.242Z,80.87
2018-02-24T03:35:40.226Z,81.05
2018-02-24T03:36:54.688Z,80.49
2018-02-24T03:38:08.649Z,80.87
2018-02-24T03:39:22.632Z,81.15
2018-02-24T03:40:36.347Z,80.58
2018-02-24T03:41:50.564Z,80.68
2018-02-24T03:43:04.556Z,80.3
2018-02-24T03:44:18.567Z,80.68
2018-02-24T03:45:33.021Z,79.55
2018-02-24T03:46:46.991Z,80.21
2018-02-24T03:48:01.223Z,80.02
2018-02-24T03:49:15.573Z,79.74
2018-02-24T03:50:29.304Z,80.02
2018-02-24T03:51:43.524Z,80.02
2018-02-24T03:52:57.490Z,80.02
2018-02-24T03:54:11.731Z,80.4
2018-02-24T03:55:25.704Z,80.77
2018-02-24T03:56:39.705Z,80.68
2018-02-24T03:57:53.924Z,80.58
2018-02-24T03:59:08.155Z,81.34
2018-02-24T04:00:22.172Z,80.49
2018-02-24T04:01:36.606Z,80.96
2018-02-24T04:02:50.559Z,81.53
2018-02-24T04:04:04.288Z,81.53
2018-02-24T04:05:18.509Z,81.43
2018-02-24T04:06:32.500Z,81.81
2018-02-24T04:07:46.557Z,82
2018-02-24T04:09:00.294Z,82
2018-02-24T04:10:14.296Z,82.47
2018-02-24T04:11:29.008Z,82.47
2018-02-24T04:12:43.229Z,81.72
2018-02-24T04:13:57.460Z,81.43
2018-02-24T04:15:11.705Z,81.53
2018-02-24T04:16:26.097Z,81.53
2018-02-24T04:17:40.593Z,81.24
2018-02-24T04:18:54.345Z,80.96
2018-02-24T04:20:08.353Z,80.49
2018-02-24T04:21:22.115Z,80.96
2018-02-24T04:22:48.338Z,81.34
2018-02-24T04:24:02.072Z,81.34
2018-02-24T04:25:16.378Z,81.62
2018-02-24T04:26:31.085Z,81.62
2018-02-24T04:27:45.813Z,81.43
2018-02-24T04:28:59.566Z,81.34
2018-02-24T04:30:13.305Z,81.43
2018-02-24T04:31:26.833Z,81.72
2018-02-24T04:32:40.557Z,81.34
2018-02-24T04:33:55.040Z,81.15
2018-02-24T04:35:09.270Z,81.15
2018-02-24T04:36:23.743Z,81.53
2018-02-24T04:37:38.211Z,81.24
2018-02-24T04:38:52.171Z,81.53
2018-02-24T04:40:06.163Z,81.34
2018-02-24T04:41:19.893Z,81.53
2018-02-24T04:42:33.902Z,81.62
2018-02-24T04:43:47.841Z,81.81
2018-02-24T04:45:01.598Z,81.72
2018-02-24T04:46:15.583Z,82.1
2018-02-24T04:47:29.823Z,82.57
2018-02-24T04:48:43.800Z,82.28
2018-02-24T04:49:57.812Z,82.47
2018-02-24T04:51:12.043Z,82.19
2018-02-24T04:52:26.782Z,82.76
2018-02-24T04:53:40.772Z,82.85
2018-02-24T04:54:54.554Z,83.23
2018-02-24T04:56:08.897Z,83.04
2018-02-24T04:57:23.108Z,83.14
2018-02-24T04:58:37.092Z,83.8
2018-02-24T04:59:51.365Z,83.7
2018-02-24T05:01:05.077Z,83.33
2018-02-24T05:02:18.577Z,83.89
2018-02-24T05:03:33.057Z,83.42
2018-02-24T05:04:46.822Z,83.61
2018-02-24T05:06:00.792Z,83.7
2018-02-24T05:07:14.795Z,83.42
2018-02-24T05:08:29.033Z,83.51
2018-02-24T05:09:42.793Z,83.61
2018-02-24T05:10:57.022Z,83.61
2018-02-24T05:12:11.762Z,83.7
2018-02-24T05:13:25.966Z,83.8
2018-02-24T05:14:39.949Z,83.42
2018-02-24T05:15:53.684Z,83.51
2018-02-24T05:17:07.684Z,83.61
2018-02-24T05:18:22.188Z,84.08
2018-02-24T05:19:36.667Z,83.14
2018-02-24T05:20:50.919Z,83.33
2018-02-24T05:22:05.384Z,83.42
2018-02-24T05:23:19.338Z,83.61
2018-02-24T05:24:33.546Z,83.61
2018-02-24T05:25:47.532Z,83.51
2018-02-24T05:27:01.997Z,83.61
2018-02-24T05:28:16.487Z,83.61
2018-02-24T05:29:31.068Z,83.42
2018-02-24T05:30:44.313Z,83.33
2018-02-24T05:31:58.807Z,83.51
2018-02-24T05:33:12.787Z,83.51
2018-02-24T05:34:27.505Z,83.51
2018-02-24T05:35:41.784Z,82.95
2018-02-24T05:36:56.118Z,82.76
2018-02-24T05:38:10.194Z,82.95
2018-02-24T05:39:24.471Z,83.04
2018-02-24T05:40:38.222Z,82.95
2018-02-24T05:41:51.967Z,83.23
2018-02-24T05:43:06.237Z,83.61
2018-02-24T05:44:20.255Z,83.51
2018-02-24T05:45:34.267Z,83.98
2018-02-24T05:46:48.282Z,84.17
2018-02-24T05:48:02.293Z,84.55
2018-02-24T05:49:16.286Z,84.83
2018-02-24T05:50:30.508Z,84.74
2018-02-24T05:51:45.028Z,84.64
2018-02-24T05:52:59.761Z,84.64
2018-02-24T05:54:13.788Z,84.55
2018-02-24T05:55:27.580Z,84.83
2018-02-24T05:56:41.577Z,85.02
2018-02-24T05:57:55.595Z,84.36
2018-02-24T05:59:09.844Z,83.8
2018-02-24T06:00:24.310Z,84.36
2018-02-24T06:01:38.567Z,83.8
2018-02-24T06:02:52.937Z,83.61
2018-02-24T06:04:07.398Z,83.89
2018-02-24T06:05:21.876Z,83.8
2018-02-24T06:06:36.358Z,83.98
2018-02-24T06:07:50.582Z,83.7
2018-02-24T06:09:04.569Z,83.61
2018-02-24T06:10:19.069Z,83.7
2018-02-24T06:11:32.588Z,84.08
2018-02-24T06:12:45.845Z,84.08
2018-02-24T06:13:59.786Z,84.17
2018-02-24T06:15:13.523Z,83.8
2018-02-24T06:16:27.782Z,83.98
2018-02-24T06:17:42.018Z,83.8
2018-02-24T06:18:56.234Z,83.04
2018-02-24T06:20:10.221Z,83.14
2018-02-24T06:21:24.450Z,83.33
2018-02-24T06:22:38.433Z,83.04
2018-02-24T06:23:52.906Z,82.66
2018-02-24T06:25:07.405Z,82.85
2018-02-24T06:26:21.675Z,82.1
2018-02-24T06:27:35.709Z,82
2018-02-24T06:28:49.912Z,81.62
2018-02-24T06:30:03.668Z,81.34
2018-02-24T06:31:17.681Z,81.34
2018-02-24T06:32:31.697Z,81.43
2018-02-24T06:33:45.488Z,81.72
2018-02-24T06:34:59.495Z,81.24
2018-02-24T06:36:13.341Z,81.53
2018-02-24T06:37:27.362Z,81.24
2018-02-24T06:38:41.605Z,80.68
2018-02-24T06:39:55.336Z,81.05
2018-02-24T06:41:09.572Z,81.43
2018-02-24T06:42:23.574Z,81.43
2018-02-24T06:43:37.327Z,81.24
2018-02-24T06:44:51.602Z,81.34
2018-02-24T06:46:05.337Z,81.72
2018-02-24T06:47:19.823Z,81.62
2018-02-24T06:48:34.058Z,81.53
2018-02-24T06:49:48.067Z,81.91
2018-02-24T06:51:02.303Z,81.72
2018-02-24T06:52:16.768Z,81.72
2018-02-24T06:53:30.994Z,81.91
2018-02-24T06:54:45.615Z,81.72
2018-02-24T06:55:59.607Z,82
2018-02-24T06:57:14.363Z,82.19
2018-02-24T06:58:28.608Z,82
2018-02-24T06:59:42.603Z,82
2018-02-24T07:00:56.817Z,82.1
2018-02-24T07:02:11.060Z,82.47
2018-02-24T07:03:25.058Z,82.57
2018-02-24T07:04:39.048Z,82.57
2018-02-24T07:05:53.289Z,82.28
2018-02-24T07:07:07.531Z,82.47
2018-02-24T07:08:22.261Z,82
2018-02-24T07:09:36.359Z,82.1
2018-02-24T07:10:50.363Z,82
2018-02-24T07:12:03.874Z,81.62
2018-02-24T07:13:18.155Z,81.43
2018-02-24T07:14:32.128Z,81.43
2018-02-24T07:15:46.331Z,81.43
2018-02-24T07:17:00.826Z,81.24
2018-02-24T07:18:14.810Z,80.87
2018-02-24T07:19:28.624Z,80.96
2018-02-24T07:20:42.413Z,81.24
2018-02-24T07:21:56.401Z,80.68
2018-02-24T07:23:10.393Z,81.34
2018-02-24T07:24:24.629Z,81.05
2018-02-24T07:25:38.387Z,80.58
2018-02-24T07:26:52.194Z,80.68
2018-02-24T07:28:06.759Z,80.21
2018-02-24T07:29:20.995Z,80.49
2018-02-24T07:30:34.551Z,80.3
2018-02-24T07:31:48.523Z,79.93
2018-02-24T07:33:02.746Z,79.74
2018-02-24T07:34:16.752Z,79.08
2018-02-24T07:35:30.991Z,78.92
2018-02-24T07:36:45.254Z,79.27
2018-02-24T07:37:59.964Z,78.74
2018-02-24T07:39:14.455Z,78.74
2018-02-24T07:40:28.515Z,78.92
2018-02-24T07:41:43.008Z,78.45
2018-02-24T07:42:57.362Z,78.64
2018-02-24T07:44:11.651Z,78.08
2018-02-24T07:45:25.171Z,77.7
2018-02-24T07:46:39.428Z,77.51
2018-02-24T07:47:53.454Z,77.51
2018-02-24T07:49:07.757Z,77.42
2018-02-24T07:50:21.824Z,77.23
2018-02-24T07:51:36.102Z,77.51
2018-02-24T07:52:49.625Z,76.95
2018-02-24T07:54:04.222Z,76.76
2018-02-24T07:55:17.791Z,76.85
2018-02-24T07:56:32.095Z,76
2018-02-24T07:57:46.827Z,75.15
2018-02-24T07:59:00.828Z,75.34
2018-02-24T08:00:15.094Z,75.43
2018-02-24T08:01:29.137Z,75.24
2018-02-24T08:02:42.650Z,74.87
2018-02-24T08:03:56.935Z,74.96
2018-02-24T08:05:11.173Z,74.58
2018-02-24T08:06:25.894Z,74.4
2018-02-24T08:07:39.643Z,73.83
2018-02-24T08:08:54.161Z,74.11
2018-02-24T08:10:08.176Z,73.83
2018-02-24T08:11:22.441Z,73.36
2018-02-24T08:12:36.951Z,73.07
2018-02-24T08:13:50.979Z,72.98
2018-02-24T08:15:05.000Z,72.51
2018-02-24T08:16:19.152Z,72.13
2018-02-24T08:17:33.431Z,72.22
2018-02-24T08:18:47.696Z,72.07
2018-02-24T08:20:01.753Z,72.13
2018-02-24T08:21:16.088Z,72.26
2018-02-24T08:22:30.114Z,72.83
2018-02-24T08:23:44.146Z,72.36
2018-02-24T08:24:58.397Z,72.36
2018-02-24T08:26:12.417Z,72.36
2018-02-24T08:27:26.412Z,72.45
2018-02-24T08:28:40.675Z,71.79
2018-02-24T08:29:55.185Z,71.6
2018-02-24T08:31:09.655Z,71.03
2018-02-24T08:32:23.925Z,71.31
2018-02-24T08:33:38.434Z,70.84
2018-02-24T08:34:52.475Z,71.22
2018-02-24T08:36:06.746Z,71.12
2018-02-24T08:37:20.513Z,71.31
2018-02-24T08:38:34.231Z,70.56
2018-02-24T08:39:47.460Z,70
2018-02-24T08:41:01.986Z,69.43
2018-02-24T08:42:15.496Z,69.52
2018-02-24T08:43:29.008Z,70.18
2018-02-24T08:44:42.746Z,69.9
2018-02-24T08:45:56.816Z,70.28
2018-02-24T08:47:10.820Z,70.18
2018-02-24T08:48:24.631Z,69.43
2018-02-24T08:49:38.500Z,69.52
2018-02-24T08:50:52.256Z,69.43
2018-02-24T08:52:06.035Z,69.71
2018-02-24T08:53:20.767Z,69.9
2018-02-24T08:54:35.053Z,69.62
2018-02-24T08:55:49.072Z,69.81
2018-02-24T08:57:03.097Z,70.03
2018-02-24T08:58:17.068Z,69.37
2018-02-24T08:59:30.802Z,68.8
2018-02-24T09:00:44.785Z,68.9
2018-02-24T09:01:59.513Z,68.33
2018-02-24T09:03:14.070Z,68.23
2018-02-24T09:04:28.541Z,68.33
2018-02-24T09:05:42.554Z,67.47
2018-02-24T09:06:56.596Z,67.76
2018-02-24T09:08:10.849Z,67.29
2018-02-24T09:09:25.338Z,67.1
2018-02-24T09:10:38.931Z,66.91
2018-02-24T09:11:52.928Z,67
2018-02-24T09:13:07.293Z,65.87
2018-02-24T09:14:21.331Z,65.78
2018-02-24T09:15:35.339Z,66.06
2018-02-24T09:16:48.838Z,65.68
2018-02-24T09:18:03.632Z,65.87
2018-02-24T09:19:17.897Z,65.24
2018-02-24T09:20:32.391Z,64.86
2018-02-24T09:21:46.446Z,64.67
2018-02-24T09:23:00.079Z,64.48
2018-02-24T09:24:14.884Z,63.73
2018-02-24T09:25:28.869Z,64.01
2018-02-24T09:26:42.945Z,64.11
2018-02-24T09:27:57.147Z,63.73
2018-02-24T09:29:11.459Z,63.54
2018-02-24T09:30:25.500Z,63.45
2018-02-24T09:31:39.064Z,63.16
2018-02-24T09:32:53.082Z,62.4
2018-02-24T09:34:07.348Z,62.5
2018-02-24T09:35:21.147Z,62.06
2018-02-24T09:36:35.099Z,61.49
2018-02-24T09:37:48.872Z,60.74
2018-02-24T09:39:03.164Z,60.93
2018-02-24T09:40:17.415Z,60.36
2018-02-24T09:41:31.880Z,59.5
2018-02-24T09:42:46.408Z,59.03
2018-02-24T09:44:00.352Z,59.03
2018-02-24T09:45:14.994Z,58.94
2018-02-24T09:46:29.277Z,58.65
2018-02-24T09:47:43.500Z,58.28
2018-02-24T09:48:57.751Z,58.28
2018-02-24T09:50:12.259Z,58.28
2018-02-24T09:51:26.485Z,58.47
2018-02-24T09:52:41.013Z,58.56
2018-02-24T09:53:54.511Z,58.56
2018-02-24T09:55:08.262Z,57.9
2018-02-24T09:56:22.392Z,58.18
2018-02-24T09:57:36.620Z,57.99
2018-02-24T09:58:50.155Z,58.09
2018-02-24T10:00:04.420Z,57.8
2018-02-24T10:01:18.717Z,57.9
2018-02-24T10:02:32.787Z,57.99
2018-02-24T10:03:46.360Z,57.71
2018-02-24T10:05:00.176Z,57.35
2018-02-24T10:06:13.990Z,57.07
2018-02-24T10:07:28.469Z,57.26
2018-02-24T10:08:42.286Z,57.26
2018-02-24T10:09:56.998Z,56.98
2018-02-24T10:11:11.488Z,57.17
2018-02-24T10:12:26.042Z,56.98
2018-02-24T10:13:39.605Z,56.7
2018-02-24T10:14:53.902Z,56.6
2018-02-24T10:16:08.316Z,56.41
2018-02-24T10:17:22.608Z,56.03
2018-02-24T10:18:37.144Z,55.46
2018-02-24T10:19:51.387Z,54.99
2018-02-24T10:21:05.642Z,54.35
2018-02-24T10:22:19.878Z,53.31
2018-02-24T10:23:34.346Z,52.46
2018-02-24T10:24:48.813Z,52.37
2018-02-24T10:26:03.622Z,52.08
2018-02-24T10:27:18.136Z,51.99
2018-02-24T10:28:32.401Z,52.37
2018-02-24T10:29:47.075Z,52.18
2018-02-24T10:31:01.583Z,51.8
2018-02-24T10:32:15.342Z,52.37
2018-02-24T10:33:29.606Z,51.99
2018-02-24T10:34:44.374Z,52.37
2018-02-24T10:35:58.185Z,52.37
2018-02-24T10:37:12.171Z,52.08
2018-02-24T10:38:26.738Z,52.37
2018-02-24T10:39:40.768Z,52.27
2018-02-24T10:40:54.828Z,52.46
2018-02-24T10:42:09.208Z,52.46
2018-02-24T10:43:23.490Z,52.37
2018-02-24T10:44:37.819Z,52.08
2018-02-24T10:45:52.584Z,52.48
2018-02-24T10:47:06.887Z,52.46
2018-02-24T10:48:21.203Z,52.68
2018-02-24T10:49:35.248Z,52.77
2018-02-24T10:50:49.493Z,53.15
2018-02-24T10:52:03.530Z,52.68
2018-02-24T10:53:17.772Z,52.77
2018-02-24T10:54:32.001Z,52.77
2018-02-24T10:55:46.039Z,52.58
2018-02-24T10:57:00.540Z,52.68
2018-02-24T10:58:14.774Z,52.77
2018-02-24T10:59:29.000Z,52.2
2018-02-24T11:00:43.242Z,52.58
2018-02-24T11:01:57.791Z,52.87
2018-02-24T11:03:11.919Z,52.48
2018-02-24T11:04:26.440Z,52.77
2018-02-24T11:05:40.436Z,53.06
2018-02-24T11:06:54.811Z,53.06
2018-02-24T11:08:09.543Z,52.87
2018-02-24T11:09:24.090Z,52.87
2018-02-24T11:10:38.375Z,52.68
2018-02-24T11:11:52.406Z,52.48
2018-02-24T11:13:06.390Z,52.96
2018-02-24T11:14:20.797Z,52.87
2018-02-24T11:15:34.820Z,52.96
2018-02-24T11:16:48.599Z,52.87
2018-02-24T11:18:03.122Z,52.96
2018-02-24T11:19:17.651Z,52.77
2018-02-24T11:20:31.691Z,52.58
2018-02-24T11:21:45.472Z,52.87
2018-02-24T11:22:59.860Z,53.15
2018-02-24T11:24:13.903Z,53.15
2018-02-24T11:25:28.166Z,53.44
2018-02-24T11:26:42.182Z,53.34
2018-02-24T11:27:56.708Z,53.34
2018-02-24T11:29:11.270Z,53.25
2018-02-24T11:30:25.819Z,53.06
2018-02-24T11:31:39.839Z,53.44
2018-02-24T11:32:54.158Z,54.1
2018-02-24T11:34:07.952Z,54.28
2018-02-24T11:35:21.920Z,54.13
2018-02-24T11:36:36.038Z,53.84
2018-02-24T11:37:50.813Z,54.22
2018-02-24T11:39:05.094Z,53.94
2018-02-24T11:40:19.102Z,54.32
2018-02-24T11:41:33.154Z,53.94
2018-02-24T11:42:47.653Z,53.75
2018-02-24T11:44:01.669Z,54.22
2018-02-24T11:45:15.444Z,54.03
2018-02-24T11:46:29.207Z,54.03
2018-02-24T11:47:43.114Z,53.84
2018-02-24T11:48:57.405Z,54.32
2018-02-24T11:50:11.711Z,54.32
2018-02-24T11:51:25.732Z,54.22
2018-02-24T11:52:40.022Z,54.32
2018-02-24T11:53:54.046Z,54.13
2018-02-24T11:55:07.818Z,54.22
2018-02-24T11:56:21.347Z,54.03
2018-02-24T11:57:35.347Z,54.32
2018-02-24T11:58:49.373Z,54.32
2018-02-24T12:00:03.461Z,54.32
2018-02-24T12:01:17.483Z,54.03
2018-02-24T12:02:31.677Z,54.13
2018-02-24T12:03:46.194Z,54.22
2018-02-24T12:05:00.484Z,53.84
2018-02-24T12:06:14.994Z,53.56
2018-02-24T12:07:29.272Z,53.37
2018-02-24T12:08:43.582Z,53.37
2018-02-24T12:09:58.189Z,53.46
2018-02-24T12:11:12.502Z,53.56
2018-02-24T12:12:27.033Z,53.18
2018-02-24T12:13:41.132Z,53.27
2018-02-24T12:14:55.540Z,54.03
2018-02-24T12:16:09.348Z,54.03
2018-02-24T12:17:23.169Z,53.75
2018-02-24T12:18:37.706Z,53.46
2018-02-24T12:19:51.762Z,53.75
2018-02-24T12:21:06.022Z,53.75
2018-02-24T12:22:20.787Z,53.56
2018-02-24T12:23:35.093Z,53.84
2018-02-24T12:24:49.644Z,53.65
2018-02-24T12:26:03.406Z,53.84
2018-02-24T12:27:17.913Z,53.75
2018-02-24T12:28:31.960Z,53.56
2018-02-24T12:29:45.746Z,54.03
2018-02-24T12:30:59.763Z,54.32
2018-02-24T12:32:14.044Z,54.22
2018-02-24T12:33:28.322Z,54.13
2018-02-24T12:34:42.313Z,53.94
2018-02-24T12:35:56.125Z,54.13
2018-02-24T12:37:10.409Z,54.6
2018-02-24T12:38:24.218Z,54.32
2018-02-24T12:39:38.537Z,55.26
2018-02-24T12:40:52.302Z,55.36
2018-02-24T12:42:07.077Z,55.74
2018-02-24T12:43:21.263Z,55.55
2018-02-24T12:44:34.814Z,55.55
2018-02-24T12:45:49.332Z,55.45
2018-02-24T12:47:03.805Z,55.26
2018-02-24T12:48:17.628Z,55.36
2018-02-24T12:49:31.914Z,55.74
2018-02-24T12:50:46.032Z,56.56
2018-02-24T12:51:59.833Z,56.87
2018-02-24T12:53:13.883Z,57.04
2018-02-24T12:54:28.448Z,57.42
2018-02-24T12:55:43.022Z,57.25
2018-02-24T12:56:57.074Z,58.07
2018-02-24T12:58:11.673Z,57.92
2018-02-24T12:59:25.474Z,57.92
2018-02-24T13:00:40.087Z,57.98
2018-02-24T13:01:54.416Z,58.39
2018-02-24T13:03:08.508Z,58.2
2018-02-24T13:04:22.564Z,58.2
2018-02-24T13:05:36.847Z,58.2
2018-02-24T13:06:51.139Z,58.48
2018-02-24T13:08:05.915Z,59.25
2018-02-24T13:09:19.728Z,59.81
2018-02-24T13:10:33.817Z,60.35
2018-02-24T13:11:48.148Z,60.76
2018-02-24T13:13:02.447Z,60.76
2018-02-24T13:14:16.482Z,61.14
2018-02-24T13:15:31.061Z,61.05
2018-02-24T13:16:45.687Z,60.76
2018-02-24T13:17:59.255Z,61.14
2018-02-24T13:19:13.595Z,61.24
2018-02-24T13:20:27.692Z,61.14
2018-02-24T13:21:42.049Z,60.57
2018-02-24T13:22:56.590Z,60.76
2018-02-24T13:24:10.647Z,60.95
2018-02-24T13:25:24.779Z,61.52
2018-02-24T13:26:38.970Z,61.33
2018-02-24T13:27:53.294Z,61.61
2018-02-24T13:29:07.374Z,61.33
2018-02-24T13:30:21.517Z,61.9
2018-02-24T13:31:35.841Z,62.28
2018-02-24T13:32:50.658Z,62.18
2018-02-24T13:34:05.016Z,62.66
2018-02-24T13:35:19.557Z,62.66
2018-02-24T13:36:34.134Z,63.1
2018-02-24T13:37:48.500Z,63.39
2018-02-24T13:39:03.321Z,63.79
2018-02-24T13:40:17.865Z,63.51
2018-02-24T13:41:32.627Z,63.67
2018-02-24T13:42:46.917Z,63.57
2018-02-24T13:44:01.468Z,63.42
2018-02-24T13:45:15.744Z,63.57
2018-02-24T13:46:30.029Z,63.42
2018-02-24T13:47:44.086Z,63.23
2018-02-24T13:48:58.143Z,63.2
2018-02-24T13:50:11.795Z,63.2
2018-02-24T13:51:25.612Z,63.76
2018-02-24T13:52:39.197Z,64.14
2018-02-24T13:53:53.510Z,64.33
2018-02-24T13:55:08.155Z,64.23
2018-02-24T13:56:22.475Z,63.85
2018-02-24T13:57:36.536Z,63.85
2018-02-24T13:58:50.822Z,63.85
2018-02-24T14:00:05.127Z,63.95
2018-02-24T14:01:19.661Z,63.57
2018-02-24T14:02:34.017Z,63.57
2018-02-24T14:03:48.378Z,63.67
2018-02-24T14:05:02.265Z,63.76
2018-02-24T14:06:16.320Z,63.95
2018-02-24T14:07:30.431Z,63.67
2018-02-24T14:08:45.007Z,63.85
2018-02-24T14:09:59.075Z,64.04
2018-02-24T14:11:13.221Z,63.95
2018-02-24T14:12:27.813Z,64.52
2018-02-24T14:13:42.592Z,64.9
2018-02-24T14:14:57.212Z,64.81
2018-02-24T14:16:11.384Z,65
2018-02-24T14:17:25.189Z,64.9
2018-02-24T14:18:39.613Z,65.09
2018-02-24T14:19:54.106Z,64.81
2018-02-24T14:21:08.174Z,65.09
2018-02-24T14:22:22.914Z,64.52
2018-02-24T14:23:37.269Z,64.04
2018-02-24T14:24:52.063Z,64.52
2018-02-24T14:26:06.367Z,64.71
2018-02-24T14:27:20.402Z,64.52
2018-02-24T14:28:34.237Z,64.61
2018-02-24T14:29:49.201Z,64.61
2018-02-24T14:31:04.192Z,64.14
2018-02-24T14:32:18.969Z,64.23
2018-02-24T14:33:33.543Z,63.95
2018-02-24T14:34:48.053Z,63.48
2018-02-24T14:36:02.613Z,63.48
2018-02-24T14:37:17.382Z,63.1
2018-02-24T14:38:31.718Z,62.34
2018-02-24T14:39:45.771Z,62.34
2018-02-24T14:41:00.448Z,62.91
2018-02-24T14:42:15.281Z,63.1
2018-02-24T14:43:29.025Z,63.1
2018-02-24T14:44:43.327Z,62.91
2018-02-24T14:45:57.367Z,63.2
2018-02-24T14:47:12.092Z,63.1
2018-02-24T14:48:26.622Z,63.1
2018-02-24T14:49:40.442Z,63.39
2018-02-24T14:50:54.553Z,63.29
2018-02-24T14:52:09.310Z,63.57
2018-02-24T14:53:23.590Z,63.39
2018-02-24T14:54:37.619Z,63.39
2018-02-24T14:55:52.122Z,63.48
2018-02-24T14:57:06.776Z,63.57
2018-02-24T14:58:20.816Z,63.39
2018-02-24T14:59:35.089Z,62.15
2018-02-24T15:00:48.855Z,62.02
2018-02-24T15:02:02.402Z,62.02
2018-02-24T15:03:16.896Z,62.02
2018-02-24T15:04:30.431Z,62.02
2018-02-24T15:05:44.699Z,62.12
2018-02-24T15:06:59.015Z,61.83
2018-02-24T15:08:13.518Z,62.21
2018-02-24T15:09:28.162Z,61.93
2018-02-24T15:10:42.833Z,61.83
2018-02-24T15:11:56.927Z,62.02
2018-02-24T15:13:11.265Z,61.83
2018-02-24T15:14:25.315Z,61.83
2018-02-24T15:15:39.712Z,61.93
2018-02-24T15:16:53.768Z,61.93
2018-02-24T15:18:07.845Z,62.02
2018-02-24T15:19:22.184Z,62.02
2018-02-24T15:20:36.260Z,63.16
2018-02-24T15:21:50.310Z,63.64
2018-02-24T15:23:04.331Z,63.92
2018-02-24T15:24:18.881Z,64.77
2018-02-24T15:25:33.172Z,65.25
2018-02-24T15:26:47.725Z,65.34
2018-02-24T15:28:01.972Z,65.63
2018-02-24T15:29:16.495Z,66.28
2018-02-24T15:30:31.103Z,66.09
2018-02-24T15:31:45.158Z,66.28
2018-02-24T15:32:59.671Z,66.09
2018-02-24T15:34:14.202Z,66.19
2018-02-24T15:35:28.487Z,65.91
2018-02-24T15:36:42.720Z,66.25
2018-02-24T15:37:56.747Z,66.44
2018-02-24T15:39:11.303Z,66.44
2018-02-24T15:40:25.833Z,66.35
2018-02-24T15:41:40.560Z,66.53
2018-02-24T15:42:54.822Z,66.35
2018-02-24T15:44:09.612Z,66.44
2018-02-24T15:45:23.615Z,66.25
2018-02-24T15:46:37.455Z,66.35
2018-02-24T15:47:51.443Z,66.16
2018-02-24T15:49:05.660Z,66.35
2018-02-24T15:50:19.445Z,66.44
2018-02-24T15:51:33.656Z,66.35
2018-02-24T15:52:47.952Z,66.35
2018-02-24T15:54:02.454Z,66.25
2018-02-24T15:55:16.231Z,66.44
2018-02-24T15:56:30.512Z,66.44
2018-02-24T15:57:44.797Z,66.35
2018-02-24T15:58:59.067Z,67.01
2018-02-24T16:00:13.555Z,66.82